Time;durP1;ratioP1;P1;durP2;ratioP2;P2;SDS_P1;SDS_P2;PMS_P1;PMS_P2;Temp;Humidity;BMP_temperature;BMP_pressure;BME280_temperature;BME280_humidity;BME280_pressure;Samples;Min_cycle;Max_cycle;Signal;HPM_P1;HPM_P2
2021/01/26 00:01:32;;;;;;;5.50;0.20;;;4.10;99.90;;;;;;5036943;28;20043;-74
2021/01/26 00:03:58;;;;;;;9.57;0.20;;;4.10;99.90;;;;;;5036369;28;20036;-73
2021/01/26 00:06:24;;;;;;;5.65;0.35;;;4.10;99.90;;;;;;5036793;28;20108;-73
2021/01/26 00:08:49;;;;;;;6.28;0.80;;;4.00;99.90;;;;;;5037432;28;20060;-73
2021/01/26 00:11:15;;;;;;;6.32;0.75;;;3.90;99.90;;;;;;5037696;28;20021;-73
2021/01/26 00:13:41;;;;;;;12.77;1.95;;;4.00;99.90;;;;;;5037464;28;20492;-73
2021/01/26 00:16:07;;;;;;;9.70;0.17;;;4.00;99.90;;;;;;5038161;28;20030;-73
2021/01/26 00:18:33;;;;;;;6.47;0.13;;;4.00;99.90;;;;;;5036576;28;20029;-73
2021/01/26 00:20:59;;;;;;;8.88;0.32;;;4.00;99.90;;;;;;5036900;28;20030;-74
2021/01/26 00:23:25;;;;;;;4.72;0.00;;;4.10;99.90;;;;;;5037736;28;20030;-73
2021/01/26 00:25:50;;;;;;;8.90;0.28;;;4.10;99.90;;;;;;5036569;28;20121;-73
2021/01/26 00:28:17;;;;;;;6.35;0.05;;;4.00;99.90;;;;;;5037594;28;20029;-73
2021/01/26 00:30:44;;;;;;;6.57;0.17;;;4.00;99.90;;;;;;5037749;28;20480;-73
2021/01/26 00:33:22;;;;;;;4.78;0.45;;;4.00;99.90;;;;;;5037960;28;20025;-73
2021/01/26 00:35:50;;;;;;;6.63;0.00;;;4.00;99.90;;;;;;5036420;28;20372;-73
2021/01/26 00:38:15;;;;;;;2.90;0.00;;;4.10;99.90;;;;;;5037807;28;20021;-73
2021/01/26 00:40:41;;;;;;;5.25;0.15;;;4.10;99.90;;;;;;5037868;28;20028;-73
2021/01/26 00:43:08;;;;;;;5.95;0.20;;;4.10;99.90;;;;;;5037497;28;20480;-73
2021/01/26 00:45:37;;;;;;;6.70;0.10;;;4.10;99.90;;;;;;5035669;28;20037;-73
2021/01/26 00:48:04;;;;;;;2.70;0.30;;;4.10;99.90;;;;;;5037551;28;20022;-73
2021/01/26 00:50:29;;;;;;;2.63;0.10;;;4.00;99.90;;;;;;5035986;28;20503;-74
2021/01/26 00:52:55;;;;;;;6.15;0.15;;;4.00;99.90;;;;;;5037215;28;20023;-73
2021/01/26 00:55:23;;;;;;;5.70;0.00;;;4.00;99.90;;;;;;5036710;28;20032;-73
2021/01/26 00:57:49;;;;;;;5.13;0.10;;;3.90;99.90;;;;;;5035952;28;20088;-74
2021/01/26 01:00:20;;;;;;;6.10;0.00;;;3.80;99.90;;;;;;5037294;28;20053;-74
2021/01/26 01:02:45;;;;;;;9.45;1.00;;;3.80;99.90;;;;;;5037522;28;20472;-74
2021/01/26 01:05:12;;;;;;;8.98;0.15;;;3.80;99.90;;;;;;5036704;28;20036;-73
2021/01/26 01:07:37;;;;;;;6.38;0.20;;;3.80;99.90;;;;;;5036744;28;20014;-73
2021/01/26 01:10:06;;;;;;;3.38;0.05;;;3.70;99.90;;;;;;5036974;28;20017;-73
2021/01/26 01:12:31;;;;;;;1.02;0.08;;;3.60;99.90;;;;;;5036745;28;20080;-73
2021/01/26 01:14:57;;;;;;;5.97;0.00;;;3.60;99.90;;;;;;5037088;28;20017;-74
2021/01/26 01:17:23;;;;;;;6.65;0.30;;;3.50;99.90;;;;;;5036332;28;20022;-74
2021/01/26 01:19:48;;;;;;;3.42;0.32;;;3.50;99.90;;;;;;5036533;28;20032;-74
2021/01/26 01:22:14;;;;;;;5.90;0.43;;;3.60;99.90;;;;;;5035201;28;20030;-74
2021/01/26 01:24:39;;;;;;;2.83;0.13;;;3.50;99.90;;;;;;5036592;28;20030;-74
2021/01/26 01:27:05;;;;;;;3.47;0.10;;;4.20;99.90;;;;;;5036216;28;20156;-74
2021/01/26 01:29:31;;;;;;;5.22;0.15;;;3.70;99.90;;;;;;5036237;28;20504;-74
2021/01/26 01:31:59;;;;;;;2.33;0.00;;;3.60;99.90;;;;;;5036846;28;20029;-74
2021/01/26 01:34:24;;;;;;;2.75;0.00;;;3.60;99.90;;;;;;5036660;28;20367;-74
2021/01/26 01:36:50;;;;;;;4.47;0.35;;;3.70;99.90;;;;;;5036316;28;20031;-74
2021/01/26 01:39:16;;;;;;;6.03;0.30;;;3.70;99.90;;;;;;5034512;28;20067;-74
2021/01/26 01:41:41;;;;;;;3.55;0.05;;;3.70;99.90;;;;;;5037032;28;20026;-74
2021/01/26 01:44:07;;;;;;;3.53;0.00;;;3.70;99.90;;;;;;5036558;28;20033;-74
2021/01/26 01:46:38;;;;;;;5.18;0.28;;;3.60;99.90;;;;;;5036030;28;20021;-74
2021/01/26 01:49:05;;;;;;;11.77;0.52;;;3.60;99.90;;;;;;5036129;28;20033;-74
2021/01/26 01:51:37;;;;;;;5.25;0.10;;;3.70;99.90;;;;;;5036205;28;20033;-73
2021/01/26 01:54:28;;;;;;;9.32;0.30;;;3.70;99.90;;;;;;5036314;28;20025;-74
2021/01/26 01:57:10;;;;;;;5.72;0.60;;;3.70;99.90;;;;;;5036337;28;20387;-74
2021/01/26 01:59:46;;;;;;;7.75;0.10;;;3.70;99.90;;;;;;5035905;28;20025;-74
2021/01/26 02:02:13;;;;;;;5.97;0.00;;;3.70;99.90;;;;;;5036131;28;20480;-74
2021/01/26 02:04:39;;;;;;;2.08;0.10;;;3.70;99.90;;;;;;5034162;28;20025;-73
2021/01/26 02:07:06;;;;;;;5.38;0.10;;;3.80;99.90;;;;;;5035127;28;20025;-73
2021/01/26 02:09:35;;;;;;;5.50;0.13;;;3.70;99.90;;;;;;5034037;28;20032;-73
2021/01/26 02:12:01;;;;;;;2.30;0.52;;;3.70;99.90;;;;;;5034312;28;20427;-73
2021/01/26 02:14:30;;;;;;;2.38;0.00;;;3.70;99.90;;;;;;5034310;28;20021;-74
2021/01/26 02:16:55;;;;;;;3.22;0.00;;;3.60;99.90;;;;;;5034709;28;20394;-74
2021/01/26 02:19:32;;;;;;;7.20;0.00;;;3.50;99.90;;;;;;5035451;28;20104;-74
2021/01/26 02:22:35;;;;;;;3.42;0.05;;;3.60;99.90;;;;;;5035529;28;20021;-74
2021/01/26 02:25:37;;;;;;;7.75;0.10;;;3.50;99.90;;;;;;5034486;28;20029;-74
2021/01/26 02:28:39;;;;;;;4.63;0.00;;;3.60;99.90;;;;;;5033796;28;20116;-74
2021/01/26 02:31:23;;;;;;;10.02;0.40;;;3.50;99.90;;;;;;5035352;28;20380;-74
2021/01/26 02:34:27;;;;;;;5.20;0.30;;;3.40;99.90;;;;;;5035142;28;20422;-73
2021/01/26 02:37:46;;;;;;;2.88;0.00;;;3.40;99.90;;;;;;5015871;28;20439;-74
2021/01/26 02:40:23;;;;;;;;;;;3.50;99.90;;;;;;5013405;28;20030;-74
2021/01/26 02:43:00;;;;;;;5.22;0.00;;;3.50;99.90;;;;;;5012974;28;20304;-74
2021/01/26 02:45:45;;;;;;;6.63;0.00;;;3.50;99.90;;;;;;5043626;28;20041;-74
2021/01/26 02:48:11;;;;;;;4.88;0.00;;;3.50;99.90;;;;;;5054468;28;20032;-73
2021/01/26 02:51:07;;;;;;;4.97;0.00;;;3.40;99.90;;;;;;5054955;28;20111;-73
2021/01/26 02:54:10;;;;;;;7.60;0.30;;;3.40;99.90;;;;;;5054120;28;20029;-73
2021/01/26 02:57:09;;;;;;;5.07;0.00;;;3.40;99.90;;;;;;5053999;28;20056;-74
2021/01/26 02:59:53;;;;;;;2.13;0.00;;;3.30;99.90;;;;;;5054635;28;20025;-74
2021/01/26 03:02:34;;;;;;;10.60;0.10;;;3.30;99.90;;;;;;5052720;28;20395;-74
2021/01/26 03:05:21;;;;;;;6.25;0.55;;;3.40;99.90;;;;;;5054024;28;20029;-74
2021/01/26 03:08:04;;;;;;;14.85;0.35;;;3.40;99.90;;;;;;5054263;28;20027;-73
2021/01/26 03:10:44;;;;;;;4.55;0.82;;;3.40;99.90;;;;;;5052794;28;20525;-73
2021/01/26 03:13:13;;;;;;;9.45;1.40;;;3.40;99.90;;;;;;5053726;28;20493;-74
2021/01/26 03:16:06;;;;;;;6.55;0.10;;;3.50;99.90;;;;;;5052460;28;20021;-73
2021/01/26 03:18:39;;;;;;;8.23;0.00;;;3.50;99.90;;;;;;5043575;28;20048;-73
2021/01/26 03:21:06;;;;;;;6.20;0.10;;;3.60;99.90;;;;;;5053363;28;20028;-73
2021/01/26 03:23:40;;;;;;;9.70;0.73;;;3.60;99.90;;;;;;5052287;28;20474;-73
2021/01/26 03:26:10;;;;;;;8.07;0.88;;;3.60;99.90;;;;;;5053498;28;20035;-73
2021/01/26 03:28:38;;;;;;;4.30;0.10;;;3.70;99.90;;;;;;5052438;28;20031;-73
2021/01/26 03:31:05;;;;;;;2.92;0.00;;;3.80;99.90;;;;;;5053685;28;20563;-73
2021/01/26 03:33:40;;;;;;;3.95;0.00;;;3.70;99.90;;;;;;5053543;28;20033;-73
2021/01/26 03:36:05;;;;;;;9.38;0.43;;;3.80;99.90;;;;;;5053558;28;20025;-73
2021/01/26 03:38:33;;;;;;;9.00;0.00;;;3.90;99.90;;;;;;5052124;28;20123;-73
2021/01/26 03:41:01;;;;;;;9.48;1.10;;;3.90;99.90;;;;;;5052216;28;20021;-73
2021/01/26 03:43:27;;;;;;;4.88;0.47;;;3.90;99.90;;;;;;5052101;28;20112;-73
2021/01/26 03:46:08;;;;;;;11.35;1.00;;;3.90;99.90;;;;;;5052094;28;20387;-73
2021/01/26 03:49:01;;;;;;;3.70;0.20;;;3.80;99.90;;;;;;5052252;28;20025;-74
2021/01/26 03:51:30;;;;;;;3.60;0.08;;;3.80;99.90;;;;;;5053431;28;20021;-74
2021/01/26 03:54:11;;;;;;;11.02;1.38;;;3.70;99.90;;;;;;5051984;28;20391;-74
2021/01/26 03:56:45;;;;;;;12.77;0.65;;;3.80;99.90;;;;;;5053421;28;20434;-74
2021/01/26 03:59:22;;;;;;;5.13;0.00;;;3.70;99.90;;;;;;5052127;28;20025;-74
2021/01/26 04:01:53;;;;;;;5.38;0.43;;;3.70;99.90;;;;;;5053159;28;20033;-74
2021/01/26 04:04:39;;;;;;;8.18;0.25;;;3.80;99.90;;;;;;5051800;28;20028;-73
2021/01/26 04:07:16;;;;;;;8.35;0.75;;;3.70;99.90;;;;;;5053297;28;20043;-73
2021/01/26 04:09:51;;;;;;;8.60;0.35;;;3.80;99.90;;;;;;5053349;28;20471;-73
2021/01/26 04:12:26;;;;;;;3.92;0.17;;;3.70;99.90;;;;;;5051781;28;20021;-73
2021/01/26 04:15:06;;;;;;;6.93;0.75;;;3.70;99.90;;;;;;5053064;28;20108;-73
2021/01/26 04:17:35;;;;;;;9.55;0.10;;;3.80;99.90;;;;;;5053170;28;20024;-72
2021/01/26 04:20:09;;;;;;;9.85;0.40;;;3.80;99.90;;;;;;5053382;28;20132;-73
2021/01/26 04:22:35;;;;;;;12.68;0.15;;;3.70;99.90;;;;;;5051717;28;20025;-73
2021/01/26 04:25:21;;;;;;;5.32;0.38;;;3.70;99.90;;;;;;5051633;28;20585;-73
2021/01/26 04:27:46;;;;;;;9.93;0.47;;;3.70;99.90;;;;;;5051678;28;20410;-73
2021/01/26 04:30:13;;;;;;;8.02;0.50;;;3.70;99.90;;;;;;5056229;28;20100;-73
2021/01/26 04:32:38;;;;;;;5.00;0.00;;;3.80;99.90;;;;;;5056540;28;20437;-73
2021/01/26 04:35:05;;;;;;;6.60;0.00;;;3.80;99.90;;;;;;5056655;28;20021;-73
2021/01/26 04:37:30;;;;;;;3.60;0.00;;;3.80;99.90;;;;;;5056802;28;20406;-73
2021/01/26 04:39:56;;;;;;;7.80;0.90;;;3.70;99.90;;;;;;5055375;28;20017;-73
2021/01/26 04:42:26;;;;;;;7.90;0.00;;;3.70;99.90;;;;;;5056956;28;20017;-73
2021/01/26 04:45:03;;;;;;;7.53;0.30;;;3.80;99.90;;;;;;5056369;28;20025;-73
2021/01/26 04:47:35;;;;;;;8.32;0.20;;;3.80;99.90;;;;;;5056288;28;20036;-75
2021/01/26 04:50:54;;;;;;;8.38;1.15;;;3.80;99.90;;;;;;5056193;28;20031;-72
2021/01/26 04:53:29;;;;;;;8.50;0.15;;;3.70;99.90;;;;;;4995156;28;20358;-72
2021/01/26 04:56:28;;;;;;;8.82;0.10;;;3.60;99.90;;;;;;5047254;28;20127;-73
2021/01/26 04:59:12;;;;;;;3.38;0.38;;;3.60;99.90;;;;;;5056607;28;20029;-73
2021/01/26 05:01:56;;;;;;;4.95;0.28;;;3.70;99.90;;;;;;5055092;28;20115;-73
2021/01/26 05:04:29;;;;;;;7.85;0.63;;;3.70;99.90;;;;;;5056200;28;20029;-72
2021/01/26 05:07:06;;;;;;;4.72;0.00;;;3.70;99.90;;;;;;5056043;28;20021;-73
2021/01/26 05:10:04;;;;;;;3.72;0.15;;;3.90;99.90;;;;;;5056529;28;20025;-73
2021/01/26 05:12:36;;;;;;;7.50;1.00;;;3.90;99.90;;;;;;5056166;28;20025;-72
2021/01/26 05:15:04;;;;;;;1.88;0.00;;;4.00;99.90;;;;;;5054651;28;20032;-72
2021/01/26 05:17:41;;;;;;;6.75;0.22;;;4.10;99.90;;;;;;5055823;28;20108;-73
2021/01/26 05:20:14;;;;;;;8.82;0.10;;;4.10;99.90;;;;;;5054420;28;20029;-73
2021/01/26 05:22:52;;;;;;;7.25;0.50;;;4.10;99.90;;;;;;5055867;28;20091;-73
2021/01/26 05:25:21;;;;;;;7.32;0.13;;;4.20;99.90;;;;;;5055760;28;20487;-73
2021/01/26 05:27:48;;;;;;;8.68;0.80;;;4.20;99.90;;;;;;5054196;28;20013;-73
2021/01/26 05:30:36;;;;;;;8.93;0.82;;;4.20;99.90;;;;;;5055741;28;20013;-73
2021/01/26 05:33:20;;;;;;;8.55;1.00;;;4.30;99.90;;;;;;5054602;28;20041;-73
2021/01/26 05:35:52;;;;;;;3.10;0.22;;;4.30;99.90;;;;;;5055572;28;20394;-73
2021/01/26 05:38:17;;;;;;;5.60;0.10;;;4.30;99.90;;;;;;5054029;28;20021;-73
2021/01/26 05:40:55;;;;;;;2.97;0.38;;;4.30;99.90;;;;;;5053538;28;20031;-72
2021/01/26 05:43:26;;;;;;;3.50;0.00;;;4.20;99.90;;;;;;5055829;28;20032;-73
2021/01/26 05:45:58;;;;;;;7.80;0.30;;;4.20;99.90;;;;;;5055266;28;20326;-73
2021/01/26 05:48:25;;;;;;;3.85;0.00;;;4.20;99.90;;;;;;5055154;28;20505;-73
2021/01/26 05:51:13;;;;;;;2.50;0.00;;;4.20;99.90;;;;;;5044514;28;20060;-73
2021/01/26 05:53:38;;;;;;;6.78;0.52;;;4.20;99.90;;;;;;5042925;28;20096;-73
2021/01/26 05:56:11;;;;;;;2.33;0.43;;;4.20;99.90;;;;;;5055099;28;20072;-73
2021/01/26 05:58:38;;;;;;;2.30;0.00;;;4.20;99.90;;;;;;5053710;28;20082;-73
2021/01/26 06:01:09;;;;;;;3.35;0.05;;;4.20;99.90;;;;;;5055200;28;20040;-73
2021/01/26 06:03:35;;;;;;;2.67;0.00;;;4.10;99.90;;;;;;5054879;28;20337;-73
2021/01/26 06:06:17;;;;;;;2.00;0.43;;;4.00;99.90;;;;;;5054909;28;20032;-73
2021/01/26 06:08:53;;;;;;;3.60;0.20;;;3.90;99.90;;;;;;5055329;28;20078;-74
2021/01/26 06:11:28;;;;;;;7.00;0.00;;;3.80;99.90;;;;;;5053653;28;20429;-73
2021/01/26 06:14:11;;;;;;;6.47;0.32;;;3.80;99.90;;;;;;5053961;28;20391;-73
2021/01/26 06:16:36;;;;;;;4.25;0.20;;;3.70;99.90;;;;;;5053473;28;20033;-73
2021/01/26 06:19:04;;;;;;;6.93;0.10;;;3.70;99.90;;;;;;5054664;28;20548;-73
2021/01/26 06:21:44;;;;;;;8.75;0.08;;;3.60;99.90;;;;;;5044682;28;20035;-73
2021/01/26 06:24:17;;;;;;;3.83;0.05;;;3.70;99.90;;;;;;5051553;28;20040;-73
2021/01/26 06:27:08;;;;;;;6.18;0.20;;;3.60;99.90;;;;;;5034669;28;20033;-73
2021/01/26 06:29:41;;;;;;;10.75;0.55;;;3.60;99.90;;;;;;5033301;28;20025;-73
2021/01/26 06:32:08;;;;;;;2.92;0.20;;;3.60;99.90;;;;;;5034528;28;20045;-74
2021/01/26 06:34:57;;;;;;;7.28;0.13;;;3.50;99.90;;;;;;5034446;28;20036;-73
2021/01/26 06:37:41;;;;;;;3.70;0.20;;;3.50;99.90;;;;;;5041917;28;20476;-73
2021/01/26 06:40:15;;;;;;;2.10;0.00;;;3.50;99.90;;;;;;5054103;28;20082;-73
2021/01/26 06:42:54;;;;;;;6.95;0.22;;;3.60;99.90;;;;;;5042884;28;20025;-73
2021/01/26 06:45:38;;;;;;;7.68;0.80;;;3.60;99.90;;;;;;5032743;28;20034;-74
2021/01/26 06:48:22;;;;;;;5.00;0.28;;;3.60;99.90;;;;;;5033157;28;20030;-74
2021/01/26 06:51:17;;;;;;;2.58;0.00;;;3.50;99.90;;;;;;5052798;28;20478;-74
2021/01/26 06:53:50;;;;;;;0.85;0.10;;;3.60;99.90;;;;;;5053015;28;20017;-75
2021/01/26 06:56:35;;;;;;;5.30;0.13;;;3.50;99.90;;;;;;5053957;28;20116;-75
2021/01/26 06:59:00;;;;;;;4.53;0.10;;;3.50;99.90;;;;;;5049248;28;20382;-75
2021/01/26 07:01:53;;;;;;;5.20;0.00;;;3.60;99.90;;;;;;5035014;28;20108;-75
2021/01/26 07:04:56;;;;;;;5.18;0.00;;;3.70;99.90;;;;;;5053887;28;20395;-76
2021/01/26 07:07:30;;;;;;;4.95;0.03;;;3.70;99.90;;;;;;5043527;28;20475;-75
2021/01/26 07:10:27;;;;;;;5.43;0.20;;;3.70;99.90;;;;;;5050475;28;20025;-75
2021/01/26 07:13:20;;;;;;;4.85;0.00;;;3.70;99.90;;;;;;5054056;28;20078;-75
2021/01/26 07:16:07;;;;;;;3.85;0.28;;;3.70;99.90;;;;;;5054150;28;20100;-75
2021/01/26 07:19:02;;;;;;;3.45;0.15;;;3.70;99.90;;;;;;5052340;28;20029;-75
2021/01/26 07:21:31;;;;;;;2.20;0.10;;;3.70;99.90;;;;;;5054199;28;20021;-75
2021/01/26 07:24:38;;;;;;;5.68;0.00;;;3.70;99.90;;;;;;5054227;28;20033;-75
2021/01/26 07:27:37;;;;;;;6.32;0.35;;;3.70;99.90;;;;;;5032636;28;20625;-73
2021/01/26 07:30:11;;;;;;;;;;;3.80;99.90;;;;;;5050267;28;20033;-75
2021/01/26 07:33:03;;;;;;;5.82;0.47;;;3.90;99.90;;;;;;5052196;28;19943;-76
2021/01/26 07:35:46;;;;;;;5.13;0.75;;;3.90;99.90;;;;;;5106664;22;20049;-73
2021/01/26 07:38:34;;;;;;;1.75;0.10;;;3.90;99.90;;;;;;5052312;28;20509;-72
2021/01/26 07:41:28;;;;;;;6.30;0.00;;;3.80;99.90;;;;;;5053280;28;20017;-72
2021/01/26 07:44:05;;;;;;;4.55;0.00;;;3.70;99.90;;;;;;5043878;28;20095;-72
2021/01/26 07:46:36;;;;;;;3.35;0.00;;;3.70;99.90;;;;;;5053367;28;20109;-73
2021/01/26 07:49:21;;;;;;;6.28;0.10;;;3.60;99.90;;;;;;5053428;28;20017;-72
2021/01/26 07:51:56;;;;;;;1.67;0.00;;;3.60;99.90;;;;;;5052005;28;20017;-72
2021/01/26 07:54:31;;;;;;;9.93;1.40;;;3.70;99.90;;;;;;5053244;28;20442;-72
2021/01/26 07:57:00;;;;;;;1.60;0.10;;;3.70;99.90;;;;;;5053073;28;20029;-72
2021/01/26 07:59:29;;;;;;;5.93;0.00;;;3.70;99.90;;;;;;5051963;28;20028;-73
2021/01/26 08:01:59;;;;;;;4.63;0.00;;;3.80;99.90;;;;;;5053235;28;20024;-73
2021/01/26 08:04:36;;;;;;;2.00;0.63;;;3.80;99.90;;;;;;5053768;28;20064;-72
2021/01/26 08:07:04;;;;;;;1.38;0.00;;;3.90;99.90;;;;;;5056974;28;20040;-72
2021/01/26 08:09:47;;;;;;;0.57;0.00;;;4.00;99.90;;;;;;5057588;28;20021;-72
2021/01/26 08:12:19;;;;;;;0.70;0.10;;;4.20;99.90;;;;;;5057066;28;20020;-72
2021/01/26 08:14:53;;;;;;;1.25;0.00;;;4.20;99.90;;;;;;5056810;28;20048;-72
2021/01/26 08:17:33;;;;;;;6.50;0.20;;;4.30;99.90;;;;;;5055433;28;20029;-72
2021/01/26 08:20:20;;;;;;;1.70;0.03;;;4.40;99.90;;;;;;5057014;28;20386;-72
2021/01/26 08:22:54;;;;;;;7.68;0.32;;;4.40;99.90;;;;;;5055880;28;20061;-72
2021/01/26 08:25:30;;;;;;;6.43;0.35;;;4.50;99.90;;;;;;5056803;28;20402;-72
2021/01/26 08:27:57;;;;;;;1.70;0.00;;;4.60;99.90;;;;;;5055525;28;20021;-72
2021/01/26 08:30:46;;;;;;;3.22;0.00;;;4.70;99.90;;;;;;5057047;28;20045;-72
2021/01/26 08:33:17;;;;;;;0.00;0.00;;;4.80;99.90;;;;;;5056871;28;20356;-72
2021/01/26 08:36:09;;;;;;;3.08;0.00;;;4.80;99.90;;;;;;5056625;28;20033;-72
2021/01/26 08:38:52;;;;;;;3.97;0.00;;;4.90;99.90;;;;;;5032623;28;20033;-72
2021/01/26 08:41:42;;;;;;;4.00;0.00;;;5.00;99.90;;;;;;5056779;28;20039;-72
2021/01/26 08:44:20;;;;;;;0.30;0.00;;;5.00;99.90;;;;;;5057306;28;20040;-72
2021/01/26 08:46:48;;;;;;;2.67;0.00;;;5.00;99.90;;;;;;5057024;28;20033;-72
2021/01/26 08:49:19;;;;;;;0.30;0.05;;;5.00;99.90;;;;;;5056760;28;20383;-72
2021/01/26 08:51:45;;;;;;;2.30;0.00;;;5.00;99.90;;;;;;5056117;28;20426;-72
2021/01/26 08:54:37;;;;;;;4.82;0.05;;;5.00;99.90;;;;;;5054976;28;20013;-73
2021/01/26 08:57:40;;;;;;;1.98;0.20;;;4.90;99.90;;;;;;5056593;28;20502;-73
2021/01/26 09:00:18;;;;;;;4.47;0.00;;;4.90;99.90;;;;;;5056239;28;20017;-73
2021/01/26 09:02:49;;;;;;;5.40;0.28;;;4.90;99.90;;;;;;5056383;28;20029;-73
2021/01/26 09:05:41;;;;;;;2.00;0.08;;;4.90;99.90;;;;;;5056377;28;20104;-73
2021/01/26 09:08:09;;;;;;;2.60;0.63;;;4.90;99.90;;;;;;5040657;28;20067;-74
2021/01/26 09:10:39;;;;;;;7.05;0.40;;;4.90;99.90;;;;;;5056035;28;20479;-73
2021/01/26 09:13:25;;;;;;;1.33;0.00;;;4.90;99.90;;;;;;5056857;28;20426;-74
2021/01/26 09:15:59;;;;;;;2.88;0.45;;;4.90;99.90;;;;;;5054923;28;20093;-75
2021/01/26 09:18:27;;;;;;;4.32;0.00;;;4.90;99.90;;;;;;5054992;28;20487;-73
2021/01/26 09:21:01;;;;;;;5.25;0.00;;;5.00;99.90;;;;;;5056306;28;20075;-75
2021/01/26 09:23:27;;;;;;;3.70;0.28;;;5.10;99.90;;;;;;5056261;28;20541;-75
2021/01/26 09:25:53;;;;;;;2.53;0.00;;;5.10;99.90;;;;;;5057813;28;20051;-72
2021/01/26 09:28:22;;;;;;;6.72;0.60;;;5.30;99.90;;;;;;5056517;28;20020;-75
2021/01/26 09:30:57;;;;;;;4.32;0.00;;;5.40;99.90;;;;;;5057503;28;20096;-75
2021/01/26 09:33:26;;;;;;;2.58;0.00;;;5.40;99.90;;;;;;5057381;28;20021;-73
2021/01/26 09:35:53;;;;;;;2.38;0.00;;;5.50;99.90;;;;;;5056129;28;20401;-72
2021/01/26 09:38:29;;;;;;;4.32;0.00;;;5.60;99.90;;;;;;5056253;28;20090;-72
2021/01/26 09:41:01;;;;;;;3.15;0.00;;;5.60;99.90;;;;;;5056603;28;20387;-73
2021/01/26 09:43:35;;;;;;;6.22;0.85;;;5.70;99.90;;;;;;5056335;28;20442;-73
2021/01/26 09:46:14;;;;;;;0.43;0.10;;;5.70;99.90;;;;;;5056292;28;20021;-73
2021/01/26 09:48:46;;;;;;;3.25;0.00;;;5.70;99.90;;;;;;5056588;28;20031;-76
2021/01/26 09:51:23;;;;;;;6.32;0.30;;;5.80;99.90;;;;;;5055956;28;20112;-75
2021/01/26 09:54:02;;;;;;;5.97;0.10;;;5.80;99.90;;;;;;5055924;28;20032;-75
2021/01/26 09:56:29;;;;;;;2.80;0.13;;;5.80;99.90;;;;;;5055970;28;20112;-72
2021/01/26 09:58:55;;;;;;;3.70;0.80;;;5.80;99.90;;;;;;5055772;28;20037;-72
2021/01/26 10:01:21;;;;;;;4.97;0.65;;;5.90;99.90;;;;;;5055630;28;20498;-76
2021/01/26 10:03:52;;;;;;;1.90;0.00;;;5.90;99.90;;;;;;5055955;28;20055;-76
2021/01/26 10:06:19;;;;;;;2.15;0.00;;;5.90;99.90;;;;;;5055212;28;20391;-73
2021/01/26 10:08:44;;;;;;;4.00;0.28;;;6.00;99.90;;;;;;5054329;28;20035;-73
2021/01/26 10:11:18;;;;;;;1.13;0.00;;;6.00;99.90;;;;;;5054810;28;20017;-73
2021/01/26 10:13:45;;;;;;;4.78;0.10;;;6.00;99.90;;;;;;5055331;28;20025;-72
2021/01/26 10:16:22;;;;;;;3.17;0.15;;;6.20;99.90;;;;;;5054964;28;20048;-74
2021/01/26 10:18:47;;;;;;;3.78;0.00;;;6.30;99.90;;;;;;5055223;28;20479;-73
2021/01/26 10:21:13;;;;;;;4.22;0.00;;;6.40;99.90;;;;;;5054910;28;20032;-73
2021/01/26 10:23:59;;;;;;;6.72;0.68;;;6.50;99.90;;;;;;5054579;28;20029;-73
2021/01/26 10:26:26;;;;;;;0.68;0.00;;;6.60;99.90;;;;;;5054102;28;20013;-73
2021/01/26 10:29:06;;;;;;;5.18;0.25;;;6.50;99.90;;;;;;5054674;28;20364;-74
2021/01/26 10:31:57;;;;;;;3.88;0.43;;;6.50;99.90;;;;;;5053224;28;20032;-73
2021/01/26 10:34:34;;;;;;;3.63;0.00;;;6.50;99.90;;;;;;5054079;28;20398;-73
2021/01/26 10:37:18;;;;;;;2.83;0.10;;;6.50;99.90;;;;;;5055013;28;20021;-73
2021/01/26 10:39:45;;;;;;;4.60;0.10;;;6.50;99.90;;;;;;5053454;28;20451;-73
2021/01/26 10:42:22;;;;;;;2.05;0.52;;;6.60;99.90;;;;;;5054354;28;20017;-73
2021/01/26 10:44:53;;;;;;;7.72;1.00;;;6.70;99.90;;;;;;5053177;28;20128;-72
2021/01/26 10:47:33;;;;;;;3.83;0.20;;;6.80;99.90;;;;;;5054063;28;20422;-72
2021/01/26 10:50:12;;;;;;;2.10;0.00;;;6.90;99.90;;;;;;5054269;28;20410;-72
2021/01/26 10:52:38;;;;;;;;;;;6.90;99.90;;;;;;5055054;28;20356;-73
2021/01/26 10:55:05;;;;;;;6.78;0.00;;;7.00;99.90;;;;;;5053248;28;19927;-73
2021/01/26 10:57:31;;;;;;;4.38;0.10;;;7.10;99.90;;;;;;5054196;28;20033;-75
2021/01/26 10:59:56;;;;;;;5.93;0.43;;;7.10;99.90;;;;;;5053314;28;20549;-73
2021/01/26 11:02:22;;;;;;;4.97;0.05;;;7.10;99.90;;;;;;5054676;28;20484;-73
2021/01/26 11:04:47;;;;;;;2.10;0.32;;;7.10;99.90;;;;;;5054125;28;20025;-73
2021/01/26 11:07:13;;;;;;;2.38;0.00;;;6.90;99.90;;;;;;5053989;28;20040;-74
2021/01/26 11:09:38;;;;;;;0.25;0.00;;;6.80;99.90;;;;;;5052865;28;20032;-74
2021/01/26 11:12:05;;;;;;;6.07;0.57;;;6.70;99.90;;;;;;5052709;28;20028;-74
2021/01/26 11:14:31;;;;;;;4.32;0.00;;;6.70;99.90;;;;;;5053828;28;20098;-74
2021/01/26 11:16:56;;;;;;;4.05;0.00;;;6.60;99.90;;;;;;5053732;28;20029;-73
2021/01/26 11:19:22;;;;;;;2.03;0.35;;;6.60;99.90;;;;;;5052378;28;20062;-73
2021/01/26 11:21:49;;;;;;;3.92;0.52;;;6.70;99.90;;;;;;5052496;28;20043;-73
2021/01/26 11:24:14;;;;;;;0.00;0.00;;;6.70;99.90;;;;;;5052610;28;20128;-73
2021/01/26 11:26:42;;;;;;;1.88;0.00;;;6.80;99.90;;;;;;5052437;28;20060;-72
2021/01/26 11:29:08;;;;;;;2.30;0.25;;;6.80;99.90;;;;;;5054235;28;20070;-73
2021/01/26 11:31:34;;;;;;;2.92;0.00;;;6.80;99.90;;;;;;5052581;28;20021;-73
2021/01/26 11:34:00;;;;;;;0.47;0.00;;;6.80;99.90;;;;;;5053669;28;20433;-73
2021/01/26 11:36:25;;;;;;;2.53;0.20;;;6.70;99.90;;;;;;5052469;28;20564;-73
2021/01/26 11:38:51;;;;;;;2.22;0.00;;;6.70;99.90;;;;;;5055124;28;20025;-72
2021/01/26 11:41:17;;;;;;;1.75;0.00;;;6.70;99.90;;;;;;5056962;28;20471;-72
2021/01/26 11:43:43;;;;;;;5.28;0.03;;;6.70;99.90;;;;;;5058348;28;20025;-72
2021/01/26 11:46:09;;;;;;;0.35;0.00;;;6.70;99.90;;;;;;5056177;28;20439;-73
2021/01/26 11:48:37;;;;;;;3.65;0.00;;;6.80;99.90;;;;;;5056322;28;20102;-72
2021/01/26 11:51:03;;;;;;;1.60;0.00;;;6.90;99.90;;;;;;5056563;28;20021;-72
2021/01/26 11:53:29;;;;;;;4.22;0.00;;;7.00;99.90;;;;;;5058192;28;20086;-72
2021/01/26 11:55:59;;;;;;;3.22;0.22;;;7.10;99.90;;;;;;5057596;28;20091;-73
2021/01/26 11:58:25;;;;;;;3.97;0.20;;;7.20;99.90;;;;;;5057937;28;20427;-72
2021/01/26 12:00:50;;;;;;;2.85;0.10;;;7.40;99.90;;;;;;5058255;28;20024;-73
2021/01/26 12:03:17;;;;;;;1.45;0.00;;;7.40;99.90;;;;;;5057451;28;20117;-74
2021/01/26 12:05:43;;;;;;;1.60;0.22;;;7.70;99.90;;;;;;5056283;28;20021;-73
2021/01/26 12:08:10;;;;;;;1.30;0.00;;;7.80;99.90;;;;;;5056264;28;20454;-73
2021/01/26 12:10:36;;;;;;;5.15;0.00;;;7.90;99.90;;;;;;5057509;28;20019;-73
2021/01/26 12:13:02;;;;;;;0.10;0.10;;;7.90;97.70;;;;;;5057199;28;20100;-73
2021/01/26 12:15:31;;;;;;;1.10;0.00;;;7.80;98.50;;;;;;5057088;28;20028;-77
2021/01/26 12:17:58;;;;;;;3.97;0.00;;;7.80;97.70;;;;;;5057986;28;20117;-74
2021/01/26 12:20:23;;;;;;;1.95;0.00;;;8.00;99.60;;;;;;5057156;28;20383;-74
2021/01/26 12:22:50;;;;;;;0.55;0.00;;;8.10;97.40;;;;;;5055997;28;20021;-74
2021/01/26 12:25:18;;;;;;;0.35;0.00;;;8.20;99.10;;;;;;5057163;28;20020;-74
2021/01/26 12:27:45;;;;;;;1.10;0.00;;;8.10;96.90;;;;;;5055754;28;20605;-74
2021/01/26 12:30:14;;;;;;;24.00;0.40;;;8.00;97.40;;;;;;5057087;28;20021;-74
2021/01/26 12:32:39;;;;;;;0.10;0.00;;;7.90;97.90;;;;;;5057067;28;20033;-74
2021/01/26 12:35:10;;;;;;;3.45;0.00;;;7.70;95.60;;;;;;5055614;28;20033;-75
2021/01/26 12:37:36;;;;;;;0.30;0.00;;;7.60;96.60;;;;;;5056491;28;20033;-75
2021/01/26 12:40:02;;;;;;;0.57;0.00;;;7.50;98.70;;;;;;5057425;28;20031;-75
2021/01/26 12:42:27;;;;;;;0.35;0.00;;;7.50;98.30;;;;;;5057242;28;20025;-74
2021/01/26 12:44:53;;;;;;;0.00;0.00;;;7.40;96.70;;;;;;5056792;28;20471;-74
2021/01/26 12:47:19;;;;;;;1.45;0.00;;;7.30;97.30;;;;;;5056681;28;20475;-74
2021/01/26 12:49:45;;;;;;;2.53;0.00;;;7.20;99.10;;;;;;5055832;28;20029;-73
2021/01/26 12:52:11;;;;;;;4.80;0.00;;;7.10;99.80;;;;;;5056884;28;20063;-73
2021/01/26 12:54:36;;;;;;;3.63;0.63;;;7.00;99.90;;;;;;5055453;28;20025;-73
2021/01/26 12:57:02;;;;;;;5.28;1.20;;;6.80;99.90;;;;;;5056725;28;20472;-75
2021/01/26 12:59:27;;;;;;;2.60;0.00;;;6.80;99.90;;;;;;5057036;28;20092;-75
2021/01/26 13:01:53;;;;;;;3.70;0.57;;;6.80;99.90;;;;;;5056522;28;20471;-73
2021/01/26 13:04:19;;;;;;;6.82;0.00;;;6.90;99.90;;;;;;5056605;28;20013;-74
2021/01/26 13:06:45;;;;;;;4.80;0.47;;;6.70;99.90;;;;;;5056257;28;20025;-74
2021/01/26 13:09:10;;;;;;;5.88;0.03;;;6.70;99.90;;;;;;5055103;28;20029;-74
2021/01/26 13:11:36;;;;;;;5.75;0.20;;;6.70;99.90;;;;;;5056917;28;20028;-74
2021/01/26 13:14:02;;;;;;;5.68;0.22;;;6.60;99.90;;;;;;5056168;28;20021;-74
2021/01/26 13:16:28;;;;;;;2.80;0.00;;;6.60;99.90;;;;;;5056351;28;20033;-74
2021/01/26 13:18:53;;;;;;;8.93;0.63;;;6.50;99.90;;;;;;5054614;28;20025;-74
2021/01/26 13:21:19;;;;;;;7.57;0.63;;;6.50;99.90;;;;;;5054703;28;20032;-74
2021/01/26 13:23:45;;;;;;;2.97;0.17;;;6.50;99.90;;;;;;5056371;28;20071;-74
2021/01/26 13:26:10;;;;;;;4.35;0.40;;;6.50;99.90;;;;;;5054556;28;20119;-74
2021/01/26 13:28:36;;;;;;;6.10;0.65;;;6.50;99.90;;;;;;5056142;28;20390;-74
2021/01/26 13:31:02;;;;;;;1.67;0.10;;;6.50;99.90;;;;;;5056162;28;20431;-74